createdAt,value
2023-02-12T00:00:08.000Z,17.80
2023-02-12T00:02:42.860Z,17.80
2023-02-12T00:05:10.762Z,17.80
2023-02-12T00:07:38.760Z,17.80
2023-02-12T00:10:07.623Z,17.80
2023-02-12T00:12:35.498Z,17.80
2023-02-12T00:15:03.377Z,17.80
2023-02-12T00:17:32.609Z,17.80
2023-02-12T00:20:00.524Z,17.90
2023-02-12T00:22:29.509Z,17.80
2023-02-12T00:24:57.368Z,17.90
2023-02-12T00:27:25.281Z,17.90
2023-02-12T00:29:53.237Z,17.90
2023-02-12T00:32:21.179Z,17.90
2023-02-12T00:34:50.416Z,17.90
2023-02-12T00:37:18.335Z,17.90
2023-02-12T00:39:46.334Z,17.90
2023-02-12T00:42:14.278Z,17.90
2023-02-12T00:44:42.150Z,17.90
2023-02-12T00:47:10.011Z,17.90
2023-02-12T00:49:37.863Z,17.90
2023-02-12T00:52:07.349Z,17.90
2023-02-12T00:54:35.301Z,17.90
2023-02-12T00:57:03.547Z,17.90
2023-02-12T00:59:31.596Z,17.90
2023-02-12T01:01:59.558Z,17.90
2023-02-12T01:04:27.589Z,17.90
2023-02-12T01:06:56.298Z,17.90
2023-02-12T01:09:25.495Z,17.90
2023-02-12T01:11:53.400Z,17.90
2023-02-12T01:14:22.944Z,17.90
2023-02-12T01:16:50.822Z,17.90
2023-02-12T01:19:20.330Z,17.90
2023-02-12T01:21:48.220Z,17.90
2023-02-12T01:24:16.170Z,17.90
2023-02-12T01:26:45.355Z,17.90
2023-02-12T01:29:13.184Z,17.90
2023-02-12T01:31:42.834Z,17.90
2023-02-12T01:34:11.162Z,17.90
2023-02-12T01:36:39.725Z,17.90
2023-02-12T01:39:07.719Z,17.90
2023-02-12T01:41:36.801Z,17.90
2023-02-12T01:44:15.435Z,17.90
2023-02-12T01:46:44.749Z,17.90
2023-02-12T01:49:15.887Z,17.90
2023-02-12T01:51:44.201Z,17.90
2023-02-12T01:54:12.718Z,17.90
2023-02-12T01:56:40.642Z,17.90
2023-02-12T01:59:08.531Z,17.90
2023-02-12T02:01:37.834Z,17.90
2023-02-12T02:04:07.951Z,17.90
2023-02-12T02:06:37.210Z,17.90
2023-02-12T02:09:08.121Z,17.90
2023-02-12T02:11:53.347Z,17.90
2023-02-12T02:14:36.173Z,17.90
2023-02-12T02:17:27.394Z,17.90
2023-02-12T02:20:12.299Z,17.90
2023-02-12T02:22:41.472Z,17.90
2023-02-12T02:25:28.594Z,17.90
2023-02-12T02:28:03.142Z,17.90
2023-02-12T02:30:35.591Z,17.90
2023-02-12T02:33:11.295Z,17.90
2023-02-12T02:35:41.696Z,17.90
2023-02-12T02:38:21.658Z,17.90
2023-02-12T02:40:52.940Z,17.90
2023-02-12T02:43:22.966Z,17.90
2023-02-12T02:45:52.644Z,17.90
2023-02-12T02:48:22.793Z,17.90
2023-02-12T02:50:53.041Z,17.90
2023-02-12T02:53:22.006Z,17.90
2023-02-12T02:55:52.104Z,17.90
2023-02-12T02:58:22.229Z,17.90
2023-02-12T03:00:53.679Z,17.90
2023-02-12T03:03:24.475Z,17.90
2023-02-12T03:05:54.198Z,17.90
2023-02-12T03:08:25.175Z,17.90
2023-02-12T03:10:54.157Z,17.90
2023-02-12T03:13:24.003Z,17.90
2023-02-12T03:15:54.950Z,17.90
2023-02-12T03:18:23.542Z,17.90
2023-02-12T03:20:53.131Z,17.90
2023-02-12T03:23:23.258Z,17.90
2023-02-12T03:25:54.268Z,17.90
2023-02-12T03:28:23.752Z,17.90
2023-02-12T03:30:55.122Z,17.90
2023-02-12T03:33:26.105Z,17.90
2023-02-12T03:35:57.379Z,17.90
2023-02-12T03:38:30.351Z,17.90
2023-02-12T03:40:59.912Z,17.90
2023-02-12T03:43:30.250Z,18.00
2023-02-12T03:46:01.884Z,17.90
2023-02-12T03:48:31.466Z,17.90
2023-02-12T03:51:00.541Z,17.90
2023-02-12T03:53:28.489Z,17.90
2023-02-12T03:55:58.366Z,17.90
2023-02-12T03:58:27.967Z,17.90
2023-02-12T04:00:55.910Z,17.90
2023-02-12T04:03:25.332Z,17.90
2023-02-12T04:05:53.404Z,18.00
2023-02-12T04:08:21.633Z,17.90
2023-02-12T04:10:55.598Z,17.90
2023-02-12T04:13:27.338Z,17.90
2023-02-12T04:16:03.005Z,17.90
2023-02-12T04:18:35.124Z,17.90
2023-02-12T04:21:06.713Z,17.90
2023-02-12T04:23:49.726Z,17.90
2023-02-12T04:26:22.891Z,18.00
2023-02-12T04:28:57.382Z,17.90
2023-02-12T04:31:27.750Z,17.90
2023-02-12T04:34:01.472Z,17.90
2023-02-12T04:36:31.085Z,18.00
2023-02-12T04:38:59.800Z,17.90
2023-02-12T04:41:27.679Z,17.90
2023-02-12T04:43:55.671Z,17.90
2023-02-12T04:46:23.544Z,18.00
2023-02-12T04:48:53.604Z,17.90
2023-02-12T04:51:22.874Z,17.90
2023-02-12T04:53:51.033Z,18.00
2023-02-12T04:56:19.023Z,17.90
2023-02-12T04:58:46.880Z,17.90
2023-02-12T05:01:14.915Z,17.90
2023-02-12T05:03:42.849Z,17.90
2023-02-12T05:06:11.407Z,18.00
2023-02-12T05:08:40.629Z,17.90
2023-02-12T05:11:09.485Z,17.90
2023-02-12T05:13:37.637Z,17.90
2023-02-12T05:16:05.926Z,17.90
2023-02-12T05:18:33.913Z,17.90
2023-02-12T05:21:02.730Z,17.90
2023-02-12T05:23:30.786Z,17.90
2023-02-12T05:26:00.835Z,17.90
2023-02-12T05:28:28.860Z,17.90
2023-02-12T05:30:56.863Z,17.90
2023-02-12T05:33:24.822Z,17.90
2023-02-12T05:35:53.187Z,17.90
2023-02-12T05:38:21.217Z,17.90
2023-02-12T05:40:49.070Z,18.00
2023-02-12T05:43:18.262Z,17.90
2023-02-12T05:45:46.168Z,18.00
2023-02-12T05:48:14.172Z,18.00
2023-02-12T05:50:42.048Z,18.00
2023-02-12T05:53:09.942Z,17.90
2023-02-12T05:55:37.923Z,18.00
2023-02-12T05:58:05.824Z,17.90
2023-02-12T06:00:35.068Z,18.00
2023-02-12T06:03:02.965Z,18.00
2023-02-12T06:05:30.997Z,18.00
2023-02-12T06:07:58.825Z,17.90
2023-02-12T06:10:26.697Z,17.90
2023-02-12T06:12:55.507Z,17.90
2023-02-12T06:15:23.396Z,17.90
2023-02-12T06:17:52.645Z,17.90
2023-02-12T06:20:20.622Z,17.90
2023-02-12T06:22:48.516Z,17.90
2023-02-12T06:25:16.607Z,17.90
2023-02-12T06:27:44.461Z,17.90
2023-02-12T06:30:13.313Z,17.90
2023-02-12T06:32:41.200Z,17.90
2023-02-12T06:35:10.606Z,17.90
2023-02-12T06:37:38.502Z,17.90
2023-02-12T06:40:07.940Z,17.90
2023-02-12T06:42:35.771Z,17.90
2023-02-12T06:45:04.042Z,18.00
2023-02-12T06:47:31.889Z,18.00
2023-02-12T06:49:59.773Z,18.00
2023-02-12T06:52:29.355Z,18.00
2023-02-12T06:54:57.207Z,18.00
2023-02-12T06:57:25.130Z,18.00
2023-02-12T06:59:53.029Z,18.00
2023-02-12T07:02:20.978Z,18.00
2023-02-12T07:04:48.882Z,17.90
2023-02-12T07:07:16.793Z,18.00
2023-02-12T07:09:46.060Z,18.00
2023-02-12T07:12:13.949Z,18.00
2023-02-12T07:14:41.838Z,18.00
2023-02-12T07:17:10.085Z,18.00
2023-02-12T07:19:38.047Z,18.00
2023-02-12T07:22:05.956Z,18.00
2023-02-12T07:24:33.836Z,18.00
2023-02-12T07:27:03.016Z,18.00
2023-02-12T07:29:30.901Z,18.00
2023-02-12T07:31:58.821Z,18.00
2023-02-12T07:34:26.904Z,18.00
2023-02-12T07:36:54.764Z,18.10
2023-02-12T07:39:22.768Z,18.10
2023-02-12T07:41:50.656Z,18.10
2023-02-12T07:44:19.928Z,18.10
2023-02-12T07:46:49.073Z,18.10
2023-02-12T07:49:18.354Z,18.10
2023-02-12T07:51:46.365Z,18.10
2023-02-12T07:54:14.436Z,18.10
2023-02-12T07:56:43.078Z,18.10
2023-02-12T07:59:12.657Z,18.10
2023-02-12T08:01:42.408Z,18.10
2023-02-12T08:04:11.752Z,18.10
2023-02-12T08:06:41.463Z,18.10
2023-02-12T08:09:10.568Z,18.10
2023-02-12T08:11:38.572Z,18.10
2023-02-12T08:14:06.504Z,18.10
2023-02-12T08:16:37.435Z,18.20
2023-02-12T08:19:17.567Z,18.10
2023-02-12T08:21:48.213Z,18.10
2023-02-12T08:24:16.042Z,18.20
2023-02-12T08:26:44.279Z,18.20
2023-02-12T08:29:13.116Z,18.20
2023-02-12T08:31:42.382Z,18.10
2023-02-12T08:34:16.936Z,18.20
2023-02-12T08:36:45.192Z,18.10
2023-02-12T08:39:13.135Z,18.10
2023-02-12T08:41:42.256Z,18.20
2023-02-12T08:44:10.741Z,18.20
2023-02-12T08:46:40.268Z,18.20
2023-02-12T08:49:09.998Z,18.20
2023-02-12T08:51:40.137Z,18.10
2023-02-12T08:54:08.781Z,18.20
2023-02-12T08:56:36.802Z,18.10
2023-02-12T08:59:05.586Z,18.10
2023-02-12T09:01:35.527Z,18.10
2023-02-12T09:04:03.418Z,18.10
2023-02-12T09:06:33.039Z,18.10
2023-02-12T09:09:02.313Z,18.10
2023-02-12T09:11:31.491Z,18.10
2023-02-12T09:14:00.330Z,18.10
2023-02-12T09:16:28.587Z,18.10
2023-02-12T09:18:56.733Z,18.10
2023-02-12T09:21:24.610Z,18.10
2023-02-12T09:23:52.581Z,18.10
2023-02-12T09:26:22.823Z,18.00
2023-02-12T09:28:51.005Z,18.00
2023-02-12T09:31:20.849Z,18.00
2023-02-12T09:33:52.235Z,18.00
2023-02-12T09:36:21.955Z,18.10
2023-02-12T09:38:49.958Z,18.10
2023-02-12T09:41:28.885Z,18.10
2023-02-12T09:43:59.373Z,18.10
2023-02-12T09:46:30.444Z,18.00
2023-02-12T09:49:02.247Z,18.00
2023-02-12T09:51:30.224Z,18.10
2023-02-12T09:54:02.741Z,18.10
2023-02-12T09:56:31.975Z,18.10
2023-02-12T09:59:00.797Z,18.10
2023-02-12T10:01:28.861Z,18.10
2023-02-12T10:03:56.879Z,18.10
2023-02-12T10:06:26.720Z,18.00
2023-02-12T10:09:03.332Z,18.10
2023-02-12T10:11:56.465Z,18.10
2023-02-12T10:14:43.902Z,18.10
2023-02-12T10:17:16.399Z,18.10
2023-02-12T10:20:00.991Z,18.10
2023-02-12T10:22:32.455Z,18.10
2023-02-12T10:25:05.713Z,18.20
2023-02-12T10:27:39.517Z,18.20
2023-02-12T10:30:15.252Z,18.20
2023-02-12T10:32:43.248Z,18.20
2023-02-12T10:35:14.753Z,18.20
2023-02-12T10:37:44.785Z,18.20
2023-02-12T10:40:17.953Z,18.20
2023-02-12T10:42:48.332Z,18.20
2023-02-12T10:45:18.310Z,18.10
2023-02-12T10:47:46.298Z,18.10
2023-02-12T10:50:22.359Z,18.10
2023-02-12T10:52:53.228Z,18.10
2023-02-12T10:55:28.554Z,18.10
2023-02-12T10:57:58.061Z,18.10
2023-02-12T11:00:28.121Z,18.10
2023-02-12T11:03:05.112Z,18.10
2023-02-12T11:05:35.652Z,18.10
2023-02-12T11:08:04.146Z,18.10
2023-02-12T11:10:33.350Z,18.10
2023-02-12T11:13:02.607Z,18.10
2023-02-12T11:15:33.748Z,18.10
2023-02-12T11:18:04.567Z,18.10
2023-02-12T11:20:35.201Z,18.10
2023-02-12T11:23:05.819Z,18.10
2023-02-12T11:25:35.078Z,18.10
2023-02-12T11:28:22.448Z,18.20
2023-02-12T11:30:52.436Z,18.20
2023-02-12T11:33:25.518Z,18.20
2023-02-12T11:35:54.448Z,18.20
2023-02-12T11:38:25.881Z,18.30
2023-02-12T11:40:57.356Z,18.30
2023-02-12T11:43:26.894Z,18.30
2023-02-12T11:45:56.374Z,18.30
2023-02-12T11:48:25.713Z,18.30
2023-02-12T11:50:54.365Z,18.40
2023-02-12T11:53:23.583Z,18.40
2023-02-12T11:55:59.432Z,18.40
2023-02-12T11:58:28.976Z,18.40
2023-02-12T12:01:06.623Z,18.40
2023-02-12T12:03:38.178Z,18.40
2023-02-12T12:06:12.938Z,18.40
2023-02-12T12:08:44.418Z,18.40
2023-02-12T12:11:14.367Z,18.50
2023-02-12T12:13:47.430Z,18.40
2023-02-12T12:16:35.077Z,18.50
2023-02-12T12:19:22.804Z,18.40
2023-02-12T12:21:55.777Z,18.50
2023-02-12T12:24:25.660Z,18.50
2023-02-12T12:27:00.670Z,18.40
2023-02-12T12:29:34.346Z,18.50
2023-02-12T12:32:02.761Z,18.50
2023-02-12T12:34:30.821Z,18.50
2023-02-12T12:37:15.913Z,18.50
2023-02-12T12:39:48.810Z,18.40
2023-02-12T12:42:43.902Z,18.40
2023-02-12T12:45:19.267Z,18.40
2023-02-12T12:47:55.331Z,18.40
2023-02-12T12:50:29.716Z,18.40
2023-02-12T12:53:10.916Z,18.40
2023-02-12T12:55:54.726Z,18.40
2023-02-12T12:58:29.027Z,18.30
2023-02-12T13:01:12.119Z,18.30
2023-02-12T13:04:19.454Z,18.30
2023-02-12T13:06:53.905Z,18.30
2023-02-12T13:09:30.541Z,18.30
2023-02-12T13:12:14.367Z,18.30
2023-02-12T13:14:45.276Z,18.30
2023-02-12T13:17:19.392Z,18.20
2023-02-12T13:19:54.344Z,18.30
2023-02-12T13:22:26.277Z,18.20
2023-02-12T13:24:57.101Z,18.20
2023-02-12T13:27:26.684Z,18.20
2023-02-12T13:29:55.779Z,18.20
2023-02-12T13:32:26.895Z,18.20
2023-02-12T13:34:55.061Z,18.20
2023-02-12T13:37:26.909Z,18.20
2023-02-12T13:39:54.752Z,18.20
2023-02-12T13:42:34.029Z,18.20
2023-02-12T13:45:06.120Z,18.20
2023-02-12T13:47:38.177Z,18.10
2023-02-12T13:50:08.150Z,18.10
2023-02-12T13:52:38.003Z,18.10
2023-02-12T13:55:20.800Z,18.10
2023-02-12T13:57:50.777Z,18.10
2023-02-12T14:00:52.467Z,18.10
2023-02-12T14:03:25.861Z,18.10
2023-02-12T14:06:12.319Z,18.10
2023-02-12T14:08:42.225Z,18.10
2023-02-12T14:11:11.100Z,18.10
2023-02-12T14:13:48.037Z,18.10
2023-02-12T14:16:39.914Z,18.00
2023-02-12T14:19:45.654Z,18.00
2023-02-12T14:22:14.329Z,18.00
2023-02-12T14:24:49.334Z,18.00
2023-02-12T14:27:23.310Z,18.00
2023-02-12T14:30:27.333Z,18.00
2023-02-12T14:33:12.750Z,18.00
2023-02-12T14:35:42.281Z,18.00
2023-02-12T14:39:02.377Z,18.00
2023-02-12T14:41:37.784Z,18.00
2023-02-12T14:44:39.126Z,18.00
2023-02-12T14:47:13.268Z,18.00
2023-02-12T14:49:42.281Z,18.00
2023-02-12T14:52:16.414Z,18.00
2023-02-12T14:54:45.241Z,18.00
2023-02-12T14:57:22.458Z,18.00
2023-02-12T14:59:50.349Z,18.00
2023-02-12T15:02:24.020Z,18.00
2023-02-12T15:04:52.024Z,18.00
2023-02-12T15:07:26.854Z,18.00
2023-02-12T15:09:58.429Z,18.00
2023-02-12T15:12:31.276Z,18.00
2023-02-12T15:15:02.920Z,18.00
2023-02-12T15:17:31.973Z,18.00
2023-02-12T15:20:02.608Z,18.00
2023-02-12T15:22:33.227Z,18.00
2023-02-12T15:25:17.956Z,18.00
2023-02-12T15:27:45.963Z,18.00
2023-02-12T15:30:25.617Z,18.00
2023-02-12T15:32:54.909Z,18.00
2023-02-12T15:35:25.528Z,18.00
2023-02-12T15:37:55.002Z,18.00
2023-02-12T15:40:22.985Z,18.00
2023-02-12T15:42:55.750Z,18.00
2023-02-12T15:45:25.347Z,18.00
2023-02-12T15:48:05.300Z,18.00
2023-02-12T15:50:33.202Z,18.00
2023-02-12T15:53:02.382Z,18.00
2023-02-12T15:55:42.126Z,18.00
2023-02-12T15:58:20.072Z,18.00
2023-02-12T16:00:48.589Z,18.00
2023-02-12T16:03:24.122Z,18.00
2023-02-12T16:05:52.091Z,18.00
2023-02-12T16:08:22.461Z,18.00
2023-02-12T16:10:53.095Z,18.00
2023-02-12T16:13:22.302Z,18.00
2023-02-12T16:16:05.319Z,17.90
2023-02-12T16:18:33.200Z,18.00
2023-02-12T16:21:05.646Z,17.90
2023-02-12T16:23:35.721Z,17.90
2023-02-12T16:26:03.832Z,17.90
2023-02-12T16:28:32.329Z,17.90
2023-02-12T16:31:09.190Z,17.80
2023-02-12T16:33:44.862Z,17.80
2023-02-12T16:36:15.063Z,17.80
2023-02-12T16:38:45.006Z,17.80
2023-02-12T16:41:23.504Z,17.80
2023-02-12T16:43:52.275Z,17.80
2023-02-12T16:46:21.090Z,17.80
2023-02-12T16:48:49.741Z,17.80
2023-02-12T16:51:22.920Z,17.70
2023-02-12T16:53:53.876Z,17.70
2023-02-12T16:56:22.691Z,17.70
2023-02-12T16:58:51.822Z,17.70
2023-02-12T17:01:22.854Z,17.70
2023-02-12T17:03:51.131Z,17.70
2023-02-12T17:06:22.897Z,17.70
2023-02-12T17:08:52.132Z,17.70
2023-02-12T17:11:20.101Z,17.70
2023-02-12T17:13:48.534Z,17.60
2023-02-12T17:16:29.905Z,17.60
2023-02-12T17:18:59.017Z,17.60
2023-02-12T17:21:28.371Z,17.60
2023-02-12T17:23:57.637Z,17.60
2023-02-12T17:26:25.880Z,17.60
2023-02-12T17:28:53.739Z,17.60
2023-02-12T17:31:21.693Z,17.60
2023-02-12T17:33:50.246Z,17.60
2023-02-12T17:36:18.111Z,17.60
2023-02-12T17:38:46.174Z,17.60
2023-02-12T17:41:15.405Z,17.60
2023-02-12T17:43:43.246Z,17.60
2023-02-12T17:46:11.859Z,17.60
2023-02-12T17:48:40.436Z,17.60
2023-02-12T17:51:09.817Z,17.60
2023-02-12T17:53:37.730Z,17.60
2023-02-12T17:56:06.323Z,17.70
2023-02-12T17:58:35.641Z,17.70
2023-02-12T18:01:05.662Z,17.70
2023-02-12T18:03:34.178Z,17.70
2023-02-12T18:06:02.102Z,17.70
2023-02-12T18:08:30.217Z,17.70
2023-02-12T18:10:58.411Z,17.80
2023-02-12T18:13:26.530Z,17.70
2023-02-12T18:15:55.783Z,17.80
2023-02-12T18:18:23.785Z,17.80
2023-02-12T18:20:51.773Z,17.80
2023-02-12T18:23:19.686Z,17.80
2023-02-12T18:25:47.606Z,17.80
2023-02-12T18:28:15.475Z,17.80
2023-02-12T18:30:43.859Z,17.80
2023-02-12T18:33:13.727Z,17.80
2023-02-12T18:35:42.364Z,17.80
2023-02-12T18:38:10.581Z,17.80
2023-02-12T18:40:40.893Z,17.80
2023-02-12T18:43:08.792Z,17.80
2023-02-12T18:45:36.896Z,17.80
2023-02-12T18:48:08.479Z,17.90
2023-02-12T18:50:37.739Z,17.90
2023-02-12T18:53:05.762Z,17.90
2023-02-12T18:55:33.669Z,17.90
2023-02-12T18:58:01.547Z,17.90
2023-02-12T19:00:29.406Z,17.90
2023-02-12T19:02:58.286Z,17.90
2023-02-12T19:05:26.780Z,17.90
2023-02-12T19:07:56.193Z,17.90
2023-02-12T19:10:24.163Z,17.90
2023-02-12T19:12:52.127Z,17.90
2023-02-12T19:15:20.389Z,17.90
2023-02-12T19:17:48.376Z,17.80
2023-02-12T19:20:17.021Z,17.80
2023-02-12T19:22:46.473Z,17.90
2023-02-12T19:25:15.833Z,17.80
2023-02-12T19:27:43.870Z,17.80
2023-02-12T19:30:12.666Z,17.80
2023-02-12T19:32:40.580Z,17.80
2023-02-12T19:35:10.127Z,17.80
2023-02-12T19:37:38.112Z,17.80
2023-02-12T19:40:07.042Z,17.70
2023-02-12T19:42:36.440Z,17.70
2023-02-12T19:45:04.872Z,17.70
2023-02-12T19:47:32.769Z,17.70
2023-02-12T19:50:00.779Z,17.70
2023-02-12T19:52:28.898Z,17.70
2023-02-12T19:54:58.506Z,17.70
2023-02-12T19:57:26.382Z,17.70
2023-02-12T19:59:55.587Z,17.70
2023-02-12T20:02:23.684Z,17.70
2023-02-12T20:04:51.565Z,17.70
2023-02-12T20:07:19.839Z,17.70
2023-02-12T20:09:48.094Z,17.70
2023-02-12T20:12:15.994Z,17.70
2023-02-12T20:14:44.028Z,17.70
2023-02-12T20:17:14.295Z,17.70
2023-02-12T20:19:42.295Z,17.70
2023-02-12T20:22:10.183Z,17.70
2023-02-12T20:24:38.263Z,17.70
2023-02-12T20:27:06.373Z,17.70
2023-02-12T20:29:34.319Z,17.70
2023-02-12T20:32:02.383Z,17.70
2023-02-12T20:34:39.781Z,17.70
2023-02-12T20:37:18.397Z,17.70
2023-02-12T20:39:46.420Z,17.80
2023-02-12T20:42:14.333Z,17.80
2023-02-12T20:44:42.167Z,17.70
2023-02-12T20:47:10.047Z,17.80
2023-02-12T20:49:39.742Z,17.80
2023-02-12T20:52:07.830Z,17.80
2023-02-12T20:54:37.930Z,17.80
2023-02-12T20:57:06.956Z,17.80
2023-02-12T20:59:34.928Z,17.80
2023-02-12T21:02:03.030Z,17.80
2023-02-12T21:04:32.216Z,17.80
2023-02-12T21:07:01.798Z,17.80
2023-02-12T21:09:29.865Z,17.90
2023-02-12T21:11:59.182Z,17.90
2023-02-12T21:14:27.401Z,17.90
2023-02-12T21:16:56.343Z,17.90
2023-02-12T21:19:24.552Z,17.90
2023-02-12T21:21:52.475Z,18.00
2023-02-12T21:24:22.606Z,18.00
2023-02-12T21:26:50.843Z,18.00
2023-02-12T21:29:18.918Z,18.00
2023-02-12T21:31:47.703Z,18.00
2023-02-12T21:34:16.448Z,18.00
2023-02-12T21:36:46.210Z,18.00
2023-02-12T21:39:15.932Z,18.00
2023-02-12T21:41:45.223Z,18.00
2023-02-12T21:44:15.518Z,18.00
2023-02-12T21:46:43.465Z,18.10
2023-02-12T21:49:12.274Z,18.00
2023-02-12T21:51:40.948Z,18.10
2023-02-12T21:54:09.761Z,18.10
2023-02-12T21:56:37.825Z,18.10
2023-02-12T21:59:08.737Z,18.10
2023-02-12T22:01:37.469Z,18.10
2023-02-12T22:04:06.611Z,18.10
2023-02-12T22:06:37.003Z,18.10
2023-02-12T22:09:06.389Z,18.10
2023-02-12T22:11:34.251Z,18.10
2023-02-12T22:14:02.119Z,18.10
2023-02-12T22:16:31.510Z,18.10
2023-02-12T22:19:00.353Z,18.10
2023-02-12T22:21:29.244Z,18.10
2023-02-12T22:23:57.234Z,18.10
2023-02-12T22:26:26.536Z,18.10
2023-02-12T22:28:55.315Z,18.10
2023-02-12T22:31:25.210Z,18.10
2023-02-12T22:33:56.112Z,18.10
2023-02-12T22:36:25.069Z,18.10
2023-02-12T22:38:53.076Z,18.10
2023-02-12T22:41:21.256Z,18.10
2023-02-12T22:43:49.193Z,18.10
2023-02-12T22:46:17.129Z,18.10
2023-02-12T22:48:45.508Z,18.10
2023-02-12T22:51:18.902Z,18.10
2023-02-12T22:53:47.090Z,18.10
2023-02-12T22:56:14.992Z,18.10
2023-02-12T22:58:42.979Z,18.10
2023-02-12T23:01:11.877Z,18.20
2023-02-12T23:03:40.172Z,18.10
2023-02-12T23:06:09.093Z,18.20
2023-02-12T23:08:38.543Z,18.20
2023-02-12T23:11:07.975Z,18.10
2023-02-12T23:13:36.348Z,18.20
2023-02-12T23:16:04.444Z,18.20
2023-02-12T23:18:32.738Z,18.20
2023-02-12T23:21:01.171Z,18.20
2023-02-12T23:23:29.132Z,18.20
2023-02-12T23:25:58.350Z,18.20
2023-02-12T23:28:26.323Z,18.10
2023-02-12T23:30:54.754Z,18.10
2023-02-12T23:33:22.667Z,18.10
2023-02-12T23:35:50.643Z,18.20
2023-02-12T23:38:18.557Z,18.10
2023-02-12T23:40:47.430Z,18.20
2023-02-12T23:43:16.861Z,18.10
2023-02-12T23:45:45.285Z,18.10
2023-02-12T23:48:13.328Z,18.10
2023-02-12T23:50:41.232Z,18.20
2023-02-12T23:53:10.226Z,18.10
2023-02-12T23:55:38.272Z,18.20
2023-02-12T23:58:06.318Z,18.10
